Time;durP1;ratioP1;P1;durP2;ratioP2;P2;SDS_P1;SDS_P2;PMS_P1;PMS_P2;Temp;Humidity;BMP_temperature;BMP_pressure;BME280_temperature;BME280_humidity;BME280_pressure;Samples;Min_cycle;Max_cycle;Signal;HPM_P1;HPM_P2
2021/06/20 00:01:25;;;;;;;12.13;10.90;;;21.70;71.90;;;;;;5099054;28;20548;-87
2021/06/20 00:03:52;;;;;;;13.20;11.65;;;21.60;72.10;;;;;;5089129;28;20586;-87
2021/06/20 00:06:27;;;;;;;14.02;11.25;;;21.60;72.70;;;;;;5092727;28;20208;-88
2021/06/20 00:08:56;;;;;;;18.73;11.70;;;21.60;73.20;;;;;;5090837;28;20215;-86
2021/06/20 00:11:24;;;;;;;11.95;10.75;;;21.60;73.20;;;;;;5096359;28;20215;-86
2021/06/20 00:13:52;;;;;;;12.05;10.82;;;21.50;73.00;;;;;;5088963;28;20256;-83
2021/06/20 00:16:19;;;;;;;11.68;10.43;;;21.60;72.70;;;;;;5100443;28;21792;-87
2021/06/20 00:18:46;;;;;;;13.70;10.55;;;21.60;72.20;;;;;;5096350;28;20229;-87
2021/06/20 00:21:14;;;;;;;12.73;11.00;;;21.50;72.20;;;;;;5095191;28;20192;-87
2021/06/20 00:23:41;;;;;;;11.82;10.43;;;21.60;72.40;;;;;;5095446;28;20232;-87
2021/06/20 00:26:09;;;;;;;12.07;10.90;;;21.50;72.50;;;;;;5100095;28;20201;-87
2021/06/20 00:28:39;;;;;;;11.82;10.80;;;21.50;72.60;;;;;;5094781;28;20271;-88
2021/06/20 00:31:15;;;;;;;12.27;10.60;;;21.50;72.60;;;;;;5093884;28;20343;-87
2021/06/20 00:33:43;;;;;;;11.52;10.52;;;21.50;73.00;;;;;;5100238;28;20732;-87
2021/06/20 00:36:11;;;;;;;11.55;10.32;;;21.50;72.90;;;;;;5100311;28;20235;-87
2021/06/20 00:38:39;;;;;;;11.63;10.55;;;21.50;73.20;;;;;;5095366;28;20228;-87
2021/06/20 00:41:09;;;;;;;12.32;10.30;;;21.60;73.80;;;;;;5097491;28;20209;-87
2021/06/20 00:43:36;;;;;;;10.88;9.90;;;21.60;72.80;;;;;;5089592;28;20221;-87
2021/06/20 00:46:05;;;;;;;12.02;10.70;;;21.70;73.20;;;;;;5098435;28;20189;-87
2021/06/20 00:48:32;;;;;;;12.05;10.88;;;21.70;74.20;;;;;;5098592;28;20311;-87
2021/06/20 00:50:59;;;;;;;13.00;10.20;;;21.60;73.80;;;;;;5093977;28;20208;-87
2021/06/20 00:53:26;;;;;;;11.70;10.50;;;21.50;73.70;;;;;;5093155;28;20231;-87
2021/06/20 00:55:53;;;;;;;11.68;10.60;;;21.50;73.50;;;;;;5097872;28;20197;-87
2021/06/20 00:58:22;;;;;;;11.75;10.48;;;21.40;74.40;;;;;;5095919;28;20227;-88
2021/06/20 01:00:49;;;;;;;13.25;10.05;;;21.40;74.70;;;;;;5092848;28;20209;-87
2021/06/20 01:03:17;;;;;;;13.68;10.20;;;21.50;73.60;;;;;;5094534;28;20220;-87
2021/06/20 01:05:45;;;;;;;11.30;9.60;;;21.50;73.30;;;;;;5095048;28;20203;-87
2021/06/20 01:08:12;;;;;;;10.55;9.57;;;21.60;73.60;;;;;;5088704;28;20218;-87
2021/06/20 01:10:41;;;;;;;10.35;9.40;;;21.60;73.10;;;;;;5095158;28;20287;-88
2021/06/20 01:13:14;;;;;;;12.65;10.45;;;21.60;73.00;;;;;;5091158;28;20231;-88
2021/06/20 01:15:44;;;;;;;12.63;10.15;;;21.60;72.90;;;;;;5098748;28;20189;-87
2021/06/20 01:18:11;;;;;;;10.50;9.52;;;21.60;73.40;;;;;;5098433;28;20649;-88
2021/06/20 01:20:39;;;;;;;10.75;9.32;;;21.50;73.60;;;;;;5093660;28;20193;-87
2021/06/20 01:23:07;;;;;;;11.45;10.27;;;21.50;74.10;;;;;;5085163;28;20224;-87
2021/06/20 01:25:35;;;;;;;14.32;9.80;;;21.50;74.30;;;;;;5097695;28;20196;-87
2021/06/20 01:28:06;;;;;;;10.65;9.65;;;21.40;74.40;;;;;;5091796;28;20224;-87
2021/06/20 01:30:35;;;;;;;10.63;9.60;;;21.50;74.70;;;;;;5093787;28;20283;-88
2021/06/20 01:33:04;;;;;;;11.05;9.98;;;21.50;74.00;;;;;;5092389;28;20612;-87
2021/06/20 01:35:31;;;;;;;10.18;9.38;;;21.40;73.60;;;;;;5092446;28;20475;-87
2021/06/20 01:37:59;;;;;;;11.10;10.10;;;21.40;73.90;;;;;;5091048;28;20227;-87
2021/06/20 01:40:28;;;;;;;14.55;10.10;;;21.30;74.30;;;;;;5094181;28;20205;-87
2021/06/20 01:42:55;;;;;;;12.10;10.27;;;21.30;75.10;;;;;;5096803;28;20220;-87
2021/06/20 01:45:24;;;;;;;11.32;10.23;;;21.40;75.20;;;;;;5095369;28;20189;-87
2021/06/20 01:47:54;;;;;;;10.52;9.40;;;21.40;75.20;;;;;;5095441;28;20315;-88
2021/06/20 01:50:21;;;;;;;10.80;9.80;;;21.40;75.10;;;;;;5091727;28;20200;-87
2021/06/20 01:52:48;;;;;;;11.45;10.32;;;21.40;75.40;;;;;;5097912;28;20216;-87
2021/06/20 01:55:17;;;;;;;11.30;10.13;;;21.40;75.10;;;;;;5089528;28;20569;-87
2021/06/20 01:57:47;;;;;;;11.23;10.13;;;21.40;75.20;;;;;;5096015;28;20235;-87
2021/06/20 02:00:17;;;;;;;11.43;10.32;;;21.30;75.60;;;;;;5093816;28;20295;-87
2021/06/20 02:02:44;;;;;;;12.20;10.40;;;21.40;75.50;;;;;;5095833;28;20236;-87
2021/06/20 02:05:12;;;;;;;11.45;10.27;;;21.30;75.50;;;;;;5093735;28;20211;-87
2021/06/20 02:07:40;;;;;;;11.57;10.50;;;21.20;75.90;;;;;;5096913;28;20235;-87
2021/06/20 02:10:08;;;;;;;11.45;10.32;;;21.20;76.10;;;;;;5087755;28;20224;-87
2021/06/20 02:12:36;;;;;;;11.88;9.90;;;21.00;76.50;;;;;;5098587;28;20707;-87
2021/06/20 02:15:07;;;;;;;11.52;10.32;;;21.00;77.30;;;;;;5097615;28;20192;-87
2021/06/20 02:17:35;;;;;;;11.70;10.70;;;21.00;78.10;;;;;;5095954;28;20250;-88
2021/06/20 02:20:06;;;;;;;13.13;11.18;;;21.00;78.00;;;;;;5096320;28;20283;-87
2021/06/20 02:22:33;;;;;;;11.23;10.25;;;20.90;78.40;;;;;;5090603;28;20234;-87
2021/06/20 02:25:00;;;;;;;12.00;10.50;;;20.80;79.50;;;;;;5091781;28;20287;-88
2021/06/20 02:27:27;;;;;;;11.90;10.75;;;20.80;79.90;;;;;;5097385;28;20232;-88
2021/06/20 02:29:56;;;;;;;10.88;9.93;;;20.80;80.00;;;;;;5094104;28;20279;-87
2021/06/20 02:32:25;;;;;;;11.30;9.70;;;20.80;80.00;;;;;;5098012;28;20225;-87
2021/06/20 02:34:53;;;;;;;13.70;10.23;;;20.90;79.60;;;;;;5094928;28;20204;-88
2021/06/20 02:37:21;;;;;;;12.13;10.15;;;20.90;79.50;;;;;;5094331;28;20334;-87
2021/06/20 02:39:48;;;;;;;10.48;9.45;;;20.90;79.20;;;;;;5095686;28;20205;-87
2021/06/20 02:42:16;;;;;;;10.75;9.80;;;20.90;79.90;;;;;;5094089;28;20221;-87
2021/06/20 02:44:44;;;;;;;11.57;10.48;;;20.90;79.20;;;;;;5098684;28;20192;-87
2021/06/20 02:47:10;;;;;;;11.43;10.38;;;20.90;79.20;;;;;;5093723;28;20228;-87
2021/06/20 02:49:40;;;;;;;10.63;9.73;;;20.80;79.10;;;;;;5091167;28;20197;-87
2021/06/20 02:52:09;;;;;;;10.88;9.82;;;20.80;79.30;;;;;;5094632;28;20651;-88
2021/06/20 02:54:36;;;;;;;11.10;9.98;;;20.90;80.20;;;;;;5096477;28;20220;-87
2021/06/20 02:57:05;;;;;;;11.10;10.18;;;20.90;80.00;;;;;;5094483;28;20226;-87
2021/06/20 02:59:32;;;;;;;11.25;10.07;;;20.80;80.40;;;;;;5089212;28;20232;-89
2021/06/20 03:01:59;;;;;;;10.27;9.38;;;20.80;81.00;;;;;;5091649;28;20204;-87
2021/06/20 03:04:26;;;;;;;11.13;9.77;;;20.80;80.40;;;;;;5092732;28;20204;-88
2021/06/20 03:06:55;;;;;;;11.18;9.55;;;20.70;80.40;;;;;;5091289;28;20197;-87
2021/06/20 03:09:22;;;;;;;12.27;9.80;;;20.60;81.20;;;;;;5094384;28;20213;-87
2021/06/20 03:11:49;;;;;;;14.63;10.18;;;20.70;81.30;;;;;;5094424;28;20200;-88
2021/06/20 03:14:16;;;;;;;14.57;9.98;;;20.50;81.20;;;;;;5091940;28;20206;-87
2021/06/20 03:16:44;;;;;;;12.48;10.25;;;20.60;81.20;;;;;;5094965;28;20204;-87
2021/06/20 03:19:11;;;;;;;10.20;9.30;;;20.50;81.20;;;;;;5091352;28;20225;-87
2021/06/20 03:21:38;;;;;;;10.48;9.55;;;20.50;81.20;;;;;;5093287;28;20201;-87
2021/06/20 03:24:09;;;;;;;10.77;9.77;;;20.50;81.20;;;;;;5087107;28;20224;-87
2021/06/20 03:26:36;;;;;;;10.85;9.32;;;20.60;81.20;;;;;;5096545;28;20208;-87
2021/06/20 03:29:04;;;;;;;13.18;9.93;;;20.60;81.30;;;;;;5097472;28;20225;-87
2021/06/20 03:31:31;;;;;;;10.60;9.60;;;20.60;81.20;;;;;;5096878;28;20215;-87
2021/06/20 03:34:00;;;;;;;11.07;9.77;;;20.60;81.20;;;;;;5088047;28;20586;-87
2021/06/20 03:36:27;;;;;;;11.25;10.18;;;20.60;81.20;;;;;;5093330;28;20223;-87
2021/06/20 03:38:55;;;;;;;12.15;9.50;;;20.50;81.20;;;;;;5088083;28;20280;-87
2021/06/20 03:41:23;;;;;;;11.98;9.57;;;20.50;81.20;;;;;;5096895;28;20197;-88
2021/06/20 03:43:50;;;;;;;11.07;9.45;;;20.50;81.20;;;;;;5089573;28;20243;-87
2021/06/20 03:46:18;;;;;;;10.57;9.30;;;20.50;81.20;;;;;;5097459;28;20212;-87
2021/06/20 03:48:46;;;;;;;12.23;9.75;;;20.60;81.30;;;;;;5090522;28;20725;-87
2021/06/20 03:51:13;;;;;;;13.68;9.57;;;20.60;81.20;;;;;;5098390;28;20663;-87
2021/06/20 03:53:40;;;;;;;11.40;9.32;;;20.70;81.30;;;;;;5091907;28;20232;-87
2021/06/20 03:56:09;;;;;;;9.90;9.00;;;20.80;81.40;;;;;;5090316;28;20260;-87
2021/06/20 03:58:37;;;;;;;16.42;9.10;;;20.90;81.40;;;;;;5098087;28;20225;-87
2021/06/20 04:01:04;;;;;;;10.50;9.10;;;20.90;81.10;;;;;;5093096;28;20189;-87
2021/06/20 04:03:31;;;;;;;12.98;9.07;;;20.90;80.90;;;;;;5098437;28;20290;-88
2021/06/20 04:05:58;;;;;;;13.00;9.77;;;20.90;80.40;;;;;;5098209;28;20196;-87
2021/06/20 04:08:25;;;;;;;11.27;9.88;;;20.80;81.00;;;;;;5097030;28;20229;-88
2021/06/20 04:10:52;;;;;;;10.68;9.65;;;20.80;81.40;;;;;;5093255;28;20200;-87
2021/06/20 04:13:19;;;;;;;10.48;9.13;;;20.80;81.40;;;;;;5089217;28;20272;-87
2021/06/20 04:15:47;;;;;;;11.10;9.40;;;20.90;80.90;;;;;;5094772;28;20206;-87
2021/06/20 04:18:14;;;;;;;10.73;9.65;;;21.10;80.90;;;;;;5098625;28;20235;-87
2021/06/20 04:20:41;;;;;;;12.48;9.57;;;21.20;79.70;;;;;;5095014;28;20219;-87
2021/06/20 04:23:09;;;;;;;10.27;9.27;;;21.20;78.60;;;;;;5095377;28;20216;-87
2021/06/20 04:25:36;;;;;;;10.45;9.40;;;21.30;77.50;;;;;;5096780;28;20204;-87
2021/06/20 04:28:04;;;;;;;12.05;9.35;;;21.50;77.20;;;;;;5094098;28;20232;-88
2021/06/20 04:30:31;;;;;;;11.55;9.18;;;21.50;77.00;;;;;;5092426;28;20228;-88
2021/06/20 04:32:59;;;;;;;11.57;8.95;;;21.50;77.20;;;;;;5090345;28;20212;-87
2021/06/20 04:35:27;;;;;;;10.63;9.52;;;21.60;77.70;;;;;;5095384;28;20228;-86
2021/06/20 04:37:54;;;;;;;11.48;9.40;;;21.80;76.20;;;;;;5094608;28;20709;-88
2021/06/20 04:40:22;;;;;;;12.57;8.95;;;22.00;75.40;;;;;;5095373;28;20196;-88
2021/06/20 04:42:57;;;;;;;11.10;8.95;;;22.30;74.70;;;;;;5090957;28;20221;-88
2021/06/20 04:45:24;;;;;;;10.95;9.85;;;22.40;73.10;;;;;;5089036;28;20288;-88
2021/06/20 04:47:52;;;;;;;11.25;9.57;;;22.40;71.20;;;;;;5094369;28;20230;-88
2021/06/20 04:50:20;;;;;;;12.05;9.02;;;22.60;70.70;;;;;;5090831;28;20204;-88
2021/06/20 04:52:47;;;;;;;12.45;9.27;;;22.60;71.90;;;;;;5086075;28;20225;-89
2021/06/20 04:55:15;;;;;;;10.43;9.45;;;22.70;71.20;;;;;;5096330;28;20623;-88
2021/06/20 04:57:42;;;;;;;10.05;9.02;;;22.80;69.00;;;;;;5096331;28;20228;-88
2021/06/20 05:00:18;;;;;;;11.20;8.95;;;22.80;68.60;;;;;;5098006;28;20204;-86
2021/06/20 05:02:45;;;;;;;10.00;9.07;;;22.90;68.60;;;;;;5094150;28;20223;-86
2021/06/20 05:05:13;;;;;;;13.13;9.35;;;23.10;67.70;;;;;;5094862;28;20196;-85
2021/06/20 05:07:41;;;;;;;11.88;9.65;;;23.20;66.40;;;;;;5090030;28;20221;-85
2021/06/20 05:10:09;;;;;;;10.00;9.10;;;23.40;65.90;;;;;;5102707;28;20193;-86
2021/06/20 05:12:36;;;;;;;10.95;9.68;;;23.40;66.10;;;;;;5095959;28;20228;-86
2021/06/20 05:15:06;;;;;;;10.60;9.50;;;23.50;66.70;;;;;;5102459;28;20200;-86
2021/06/20 05:17:33;;;;;;;10.43;9.32;;;23.70;65.50;;;;;;5097917;28;20309;-86
2021/06/20 05:20:00;;;;;;;10.35;8.45;;;23.90;64.20;;;;;;5099836;28;20193;-85
2021/06/20 05:22:27;;;;;;;10.48;9.35;;;23.90;62.60;;;;;;5094841;28;20228;-84
2021/06/20 05:24:56;;;;;;;11.45;9.25;;;24.10;59.60;;;;;;5099118;28;20192;-85
2021/06/20 05:27:23;;;;;;;9.73;8.82;;;24.20;59.70;;;;;;5097433;28;20307;-85
2021/06/20 05:29:50;;;;;;;15.73;9.20;;;24.30;59.80;;;;;;5090122;28;20220;-84
2021/06/20 05:32:16;;;;;;;12.60;8.82;;;24.50;60.00;;;;;;5096600;28;20319;-85
2021/06/20 05:34:44;;;;;;;12.35;10.05;;;24.50;60.00;;;;;;5096450;28;20204;-84
2021/06/20 05:37:11;;;;;;;16.83;8.68;;;24.50;58.80;;;;;;5096232;28;20699;-85
2021/06/20 05:39:38;;;;;;;10.43;8.93;;;24.60;60.10;;;;;;5099069;28;20235;-85
2021/06/20 05:42:07;;;;;;;10.90;9.10;;;24.60;60.00;;;;;;5091559;28;20640;-85
2021/06/20 05:44:34;;;;;;;14.35;8.75;;;24.60;57.80;;;;;;5096783;28;20569;-86
2021/06/20 05:47:02;;;;;;;11.43;9.32;;;24.60;57.60;;;;;;5090893;28;20193;-84
2021/06/20 05:49:29;;;;;;;17.92;9.80;;;24.70;55.60;;;;;;5093923;28;20205;-83
2021/06/20 05:51:56;;;;;;;14.52;8.73;;;24.80;56.10;;;;;;5084509;28;20204;-86
2021/06/20 05:54:23;;;;;;;14.82;8.60;;;25.00;54.90;;;;;;5091131;28;20251;-82
2021/06/20 05:56:50;;;;;;;15.10;8.93;;;25.20;53.50;;;;;;5092806;28;20197;-83
2021/06/20 05:59:18;;;;;;;13.90;8.88;;;25.50;51.50;;;;;;5093104;28;20216;-83
2021/06/20 06:01:45;;;;;;;18.67;8.88;;;25.70;49.30;;;;;;5091271;28;20222;-85
2021/06/20 06:04:11;;;;;;;15.50;7.97;;;25.80;47.70;;;;;;5095701;28;20221;-82
2021/06/20 06:06:38;;;;;;;13.77;7.72;;;26.00;47.90;;;;;;5091812;28;20666;-83
2021/06/20 06:09:05;;;;;;;14.40;7.80;;;25.90;48.30;;;;;;5089466;28;20232;-82
2021/06/20 06:11:32;;;;;;;17.52;8.02;;;25.90;45.90;;;;;;5088927;28;20201;-81
2021/06/20 06:13:59;;;;;;;17.25;7.28;;;25.70;48.00;;;;;;5090272;28;20220;-84
2021/06/20 06:16:27;;;;;;;17.90;7.22;;;25.60;46.60;;;;;;5095762;28;20268;-84
2021/06/20 06:18:57;;;;;;;21.75;7.93;;;25.50;46.70;;;;;;5088204;28;20267;-82
2021/06/20 06:21:24;;;;;;;19.33;7.53;;;25.30;47.30;;;;;;5097607;28;20236;-83
2021/06/20 06:23:51;;;;;;;20.50;7.30;;;25.20;47.70;;;;;;5096391;28;20714;-85
2021/06/20 06:26:18;;;;;;;22.02;7.80;;;25.10;48.40;;;;;;5095527;28;20203;-83
2021/06/20 06:34:32;;;;;;;17.13;7.22;;;24.80;49.80;;;;;;5086357;28;20293;-92
2021/06/20 06:39:43;;;;;;;24.73;7.15;;;24.70;50.40;;;;;;5089637;28;20308;-92
2021/06/20 06:42:10;;;;;;;23.75;7.75;;;24.50;50.30;;;;;;5088566;28;20241;-89
2021/06/20 07:08:30;;;;;;;26.38;7.90;;;24.40;52.90;;;;;;4983422;28;20224;-92
2021/06/20 07:16:20;;;;;;;20.30;8.00;;;24.60;53.20;;;;;;5038655;28;20654;-92
2021/06/20 07:18:48;;;;;;;20.42;7.80;;;24.60;52.70;;;;;;5034279;28;20230;-91
2021/06/20 07:21:16;;;;;;;20.27;7.88;;;24.70;52.20;;;;;;5035530;28;20197;-93
2021/06/20 07:23:45;;;;;;;17.50;7.13;;;24.80;52.20;;;;;;5033949;28;20238;-91
2021/06/20 07:26:12;;;;;;;23.48;8.40;;;24.80;53.10;;;;;;5026639;28;20712;-91
2021/06/20 07:28:39;;;;;;;18.17;7.97;;;25.00;52.20;;;;;;5025764;28;20227;-90
2021/06/20 07:31:06;;;;;;;21.05;8.02;;;25.00;52.00;;;;;;5032387;28;20225;-91
2021/06/20 07:33:33;;;;;;;25.17;7.03;;;25.00;51.20;;;;;;5032980;28;20704;-89
2021/06/20 07:36:01;;;;;;;17.90;7.80;;;25.10;51.30;;;;;;5034203;28;20198;-90
2021/06/20 07:38:29;;;;;;;16.55;7.57;;;25.20;51.20;;;;;;5035194;28;20206;-92
2021/06/20 07:40:56;;;;;;;21.27;8.00;;;25.30;50.60;;;;;;5034875;28;20227;-89
2021/06/20 07:43:22;;;;;;;18.08;7.40;;;25.50;49.50;;;;;;5024588;28;20198;-89
2021/06/20 07:45:50;;;;;;;16.50;7.05;;;25.50;50.00;;;;;;5049194;28;20280;-90
2021/06/20 07:48:17;;;;;;;24.20;8.02;;;25.50;50.50;;;;;;5033020;28;20225;-90
2021/06/20 07:50:44;;;;;;;23.65;7.90;;;25.70;48.80;;;;;;5033984;28;20211;-91
2021/06/20 07:55:52;;;;;;;17.48;7.53;;;26.00;47.30;;;;;;5096805;23;20229;-87
2021/06/20 07:58:19;;;;;;;20.70;7.65;;;26.40;46.20;;;;;;5022356;28;20234;-87
2021/06/20 08:00:46;;;;;;;20.92;7.55;;;26.60;45.90;;;;;;5024308;28;20233;-85
2021/06/20 08:03:14;;;;;;;22.17;7.65;;;26.80;45.30;;;;;;5031866;28;20264;-89
2021/06/20 08:05:41;;;;;;;18.13;7.28;;;26.90;43.90;;;;;;5023323;28;20203;-88
2021/06/20 08:08:09;;;;;;;20.95;7.80;;;27.00;42.70;;;;;;5031848;28;20222;-90
2021/06/20 08:10:36;;;;;;;20.65;7.93;;;27.00;42.50;;;;;;5036119;28;20373;-90
2021/06/20 08:13:04;;;;;;;28.60;13.80;;;26.90;43.30;;;;;;5026146;28;20214;-90
2021/06/20 08:18:12;;;;;;;41.60;19.80;;;26.90;43.90;;;;;;5038544;28;20237;-91
2021/06/20 08:20:39;;;;;;;25.63;7.90;;;26.90;43.90;;;;;;5042663;28;20237;-90
2021/06/20 08:23:06;;;;;;;20.88;7.32;;;27.20;42.10;;;;;;5034236;28;20258;-91
2021/06/20 08:25:33;;;;;;;24.42;9.70;;;27.90;41.60;;;;;;5033318;28;20665;-90
2021/06/20 08:28:00;;;;;;;22.65;7.35;;;28.60;38.50;;;;;;5031768;28;20225;-89
2021/06/20 08:30:28;;;;;;;21.00;7.57;;;29.70;35.60;;;;;;5028821;28;20634;-90
2021/06/20 08:32:55;;;;;;;20.15;7.55;;;31.20;31.60;;;;;;5030957;28;20304;-90
2021/06/20 08:35:22;;;;;;;22.38;7.28;;;32.00;29.60;;;;;;5022751;28;20202;-91
2021/06/20 08:37:50;;;;;;;19.83;7.35;;;32.50;27.80;;;;;;5020537;28;20254;-90
2021/06/20 08:40:17;;;;;;;25.05;7.55;;;33.40;26.20;;;;;;5030398;28;20313;-89
2021/06/20 08:42:44;;;;;;;23.58;6.97;;;33.60;24.70;;;;;;5033707;28;20228;-89
2021/06/20 08:45:15;;;;;;;20.65;7.07;;;33.70;23.60;;;;;;5029170;28;20216;-90
2021/06/20 08:50:27;;;;;;;24.65;7.32;;;33.30;21.50;;;;;;5023181;28;20210;-89
2021/06/20 08:52:55;;;;;;;23.20;7.07;;;34.40;21.30;;;;;;5020103;28;20226;-88
2021/06/20 08:55:23;;;;;;;23.35;7.45;;;34.90;20.60;;;;;;5027650;28;20209;-89
2021/06/20 08:57:59;;;;;;;24.73;7.55;;;35.90;19.50;;;;;;5020428;28;20230;-89
2021/06/20 09:00:26;;;;;;;28.65;7.80;;;36.10;18.60;;;;;;5028616;28;20229;-88
2021/06/20 09:03:01;;;;;;;22.75;7.00;;;36.10;19.60;;;;;;5029627;28;20240;-88
2021/06/20 09:05:28;;;;;;;20.88;6.93;;;36.20;18.70;;;;;;5027916;28;20197;-88
2021/06/20 09:07:55;;;;;;;21.17;7.25;;;36.60;18.00;;;;;;5026457;28;20230;-89
2021/06/20 09:10:25;;;;;;;21.73;7.00;;;36.30;18.30;;;;;;5024829;28;20199;-89
2021/06/20 09:12:53;;;;;;;24.17;7.18;;;36.40;17.90;;;;;;5022953;28;20219;-89
2021/06/20 09:15:22;;;;;;;15.13;6.20;;;36.10;17.10;;;;;;5023475;28;20203;-88
2021/06/20 09:17:52;;;;;;;20.48;6.78;;;35.90;17.60;;;;;;5023307;28;20264;-88
2021/06/20 09:20:31;;;;;;;23.52;7.03;;;36.10;18.60;;;;;;5028650;28;20266;-91
2021/06/20 09:23:01;;;;;;;20.88;6.82;;;36.50;16.30;;;;;;5026119;28;20222;-89
2021/06/20 09:25:30;;;;;;;26.10;15.52;;;36.90;16.60;;;;;;5034175;28;20194;-88
2021/06/20 09:27:59;;;;;;;20.27;7.05;;;37.20;16.20;;;;;;5030224;28;20296;-89
2021/06/20 09:30:28;;;;;;;26.15;8.43;;;36.90;15.60;;;;;;5026456;28;20709;-88
2021/06/20 09:32:57;;;;;;;20.23;7.85;;;37.30;14.90;;;;;;5031099;28;20226;-90
2021/06/20 09:35:30;;;;;;;20.75;6.95;;;37.50;14.90;;;;;;5029456;28;20209;-90
2021/06/20 09:37:58;;;;;;;24.88;7.50;;;37.90;14.70;;;;;;5025686;28;20228;-89
2021/06/20 09:40:31;;;;;;;25.13;9.70;;;37.60;14.70;;;;;;5027198;28;20226;-90
2021/06/20 09:43:11;;;;;;;20.45;7.85;;;37.70;15.40;;;;;;5019089;28;20218;-90
2021/06/20 09:45:46;;;;;;;26.38;8.20;;;38.00;14.20;;;;;;5023937;28;20219;-90
2021/06/20 09:48:23;;;;;;;27.33;7.78;;;38.30;13.90;;;;;;5025700;28;20230;-90
2021/06/20 09:50:54;;;;;;;19.42;7.10;;;38.00;14.20;;;;;;5021045;28;20205;-91
2021/06/20 09:53:32;;;;;;;21.08;7.38;;;36.80;15.30;;;;;;5021056;28;20234;-90
2021/06/20 09:56:13;;;;;;;23.27;9.85;;;36.40;16.60;;;;;;5019380;28;20509;-90
2021/06/20 09:58:44;;;;;;;20.48;7.25;;;36.50;17.10;;;;;;5022740;28;20227;-91
2021/06/20 10:01:12;;;;;;;23.48;12.60;;;37.00;16.00;;;;;;5021561;28;20574;-90
2021/06/20 10:03:42;;;;;;;19.75;7.60;;;36.70;15.40;;;;;;5017056;28;20226;-90
2021/06/20 10:06:12;;;;;;;24.55;7.72;;;36.80;17.40;;;;;;5019399;28;20227;-90
2021/06/20 10:08:41;;;;;;;24.38;11.52;;;36.60;16.20;;;;;;5019886;28;20719;-91
2021/06/20 10:11:08;;;;;;;21.65;8.57;;;37.10;16.30;;;;;;5022909;28;20253;-90
2021/06/20 10:13:38;;;;;;;22.17;7.80;;;37.60;15.50;;;;;;5028313;28;20304;-90
2021/06/20 10:16:17;;;;;;;22.17;9.13;;;37.70;14.80;;;;;;5024847;28;20195;-91
2021/06/20 10:25:29;;;;;;;20.70;9.45;;;39.00;14.70;;;;;;5021666;28;20205;-93
2021/06/20 10:31:17;;;;;;;20.30;8.35;;;38.00;15.20;;;;;;4991497;28;20568;-93
2021/06/20 10:36:25;;;;;;;23.85;7.25;;;35.20;19.20;;;;;;5018046;28;20198;-93
2021/06/20 10:44:15;;;;;;;24.50;7.78;;;36.10;19.60;;;;;;5019004;28;20209;-92
2021/06/20 10:55:08;;;;;;;23.30;6.90;;;33.50;23.00;;;;;;5026995;28;20291;-91
2021/06/20 10:57:46;;;;;;;18.63;6.70;;;33.70;20.90;;;;;;5018098;28;20249;-90
2021/06/20 11:00:26;;;;;;;23.75;9.38;;;34.10;20.00;;;;;;5033064;28;20213;-90
2021/06/20 11:03:11;;;;;;;27.58;7.60;;;33.90;22.30;;;;;;5024258;28;20230;-90
2021/06/20 11:05:46;;;;;;;21.30;7.22;;;33.10;21.90;;;;;;5027282;28;20193;-90
2021/06/20 11:11:10;;;;;;;20.75;7.10;;;33.40;24.80;;;;;;5028033;28;20206;-91
2021/06/20 11:13:38;;;;;;;20.85;6.68;;;33.50;23.80;;;;;;5024203;28;20221;-91
2021/06/20 11:16:06;;;;;;;22.80;7.25;;;33.20;23.70;;;;;;5018674;28;20198;-91
2021/06/20 11:18:34;;;;;;;23.45;7.25;;;33.10;23.90;;;;;;5021098;28;20234;-91
2021/06/20 11:21:01;;;;;;;20.27;6.63;;;32.80;23.00;;;;;;5030648;28;20234;-90
2021/06/20 11:23:30;;;;;;;25.63;6.82;;;32.90;22.60;;;;;;5035088;28;20305;-92
2021/06/20 11:25:58;;;;;;;18.63;6.28;;;31.90;25.00;;;;;;5031494;28;20567;-91
2021/06/20 11:31:09;;;;;;;21.27;7.10;;;31.80;25.60;;;;;;5027522;28;20202;-92
2021/06/20 11:33:36;;;;;;;16.35;6.82;;;31.30;26.40;;;;;;5029367;28;20689;-91
2021/06/20 11:36:04;;;;;;;21.55;6.93;;;31.20;26.90;;;;;;5027710;28;20199;-90
2021/06/20 11:38:33;;;;;;;17.85;7.22;;;31.10;27.30;;;;;;5019531;28;20226;-90
2021/06/20 11:41:11;;;;;;;22.55;7.15;;;30.80;28.90;;;;;;5030398;28;20252;-92
2021/06/20 11:43:52;;;;;;;18.48;6.25;;;30.60;28.00;;;;;;5029435;28;20233;-91
2021/06/20 11:46:20;;;;;;;22.52;6.35;;;30.50;28.10;;;;;;5028802;28;20194;-90
2021/06/20 11:48:54;;;;;;;20.70;7.35;;;30.50;28.10;;;;;;5033803;28;20225;-91
2021/06/20 11:51:57;;;;;;;23.00;6.65;;;30.80;29.00;;;;;;5032869;28;20223;-90
2021/06/20 11:54:26;;;;;;;20.92;6.85;;;30.90;28.30;;;;;;5086965;23;20238;-91
2021/06/20 11:56:54;;;;;;;20.67;7.07;;;31.30;28.00;;;;;;5023645;28;20229;-90
2021/06/20 11:59:39;;;;;;;19.52;7.15;;;31.30;26.90;;;;;;5032154;28;20195;-90
2021/06/20 12:02:07;;;;;;;22.67;6.82;;;31.20;28.40;;;;;;5033592;28;20582;-89
2021/06/20 12:04:35;;;;;;;28.35;7.50;;;31.30;28.40;;;;;;5033518;28;20581;-88
2021/06/20 12:07:06;;;;;;;18.83;7.38;;;31.50;29.90;;;;;;5035766;28;20202;-89
2021/06/20 12:09:34;;;;;;;27.33;7.72;;;31.30;28.40;;;;;;5044619;28;20657;-91
2021/06/20 12:12:03;;;;;;;19.20;7.05;;;31.20;27.80;;;;;;5026216;28;20199;-90
2021/06/20 12:14:32;;;;;;;23.45;7.40;;;31.00;28.30;;;;;;5033378;28;20201;-91
2021/06/20 12:17:01;;;;;;;27.13;6.75;;;30.70;29.00;;;;;;5027656;28;20206;-90
2021/06/20 12:19:33;;;;;;;19.60;6.35;;;30.30;29.50;;;;;;5031116;28;20202;-91
2021/06/20 12:22:07;;;;;;;22.73;6.47;;;30.00;30.10;;;;;;5030302;28;20209;-90
2021/06/20 12:24:41;;;;;;;30.27;7.15;;;30.10;31.70;;;;;;5031579;28;20644;-91
2021/06/20 12:27:08;;;;;;;24.42;7.35;;;30.10;31.10;;;;;;5021651;28;20244;-91
2021/06/20 12:29:36;;;;;;;26.63;6.97;;;29.90;31.00;;;;;;5025417;28;20233;-91
2021/06/20 12:32:16;;;;;;;24.08;7.00;;;29.70;31.40;;;;;;5032862;28;20213;-89
2021/06/20 12:34:48;;;;;;;20.92;6.97;;;29.40;32.30;;;;;;5025922;28;20240;-89
2021/06/20 12:37:17;;;;;;;23.75;7.60;;;29.20;33.80;;;;;;5027649;28;20234;-89
2021/06/20 12:39:50;;;;;;;19.00;7.07;;;29.10;33.60;;;;;;5026129;28;20213;-89
2021/06/20 12:42:18;;;;;;;21.52;6.88;;;29.10;32.70;;;;;;5024269;28;20236;-88
2021/06/20 12:44:47;;;;;;;18.83;6.88;;;29.20;32.90;;;;;;5031805;28;20198;-88
2021/06/20 12:47:16;;;;;;;25.30;7.18;;;29.30;32.40;;;;;;5023399;28;20230;-89
2021/06/20 12:49:47;;;;;;;19.67;6.88;;;29.50;33.20;;;;;;5028815;28;20206;-89
2021/06/20 12:52:14;;;;;;;21.70;7.70;;;29.70;32.20;;;;;;5031299;28;20727;-89
2021/06/20 12:54:54;;;;;;;24.55;7.47;;;29.60;32.30;;;;;;5025504;28;20230;-89
2021/06/20 12:57:22;;;;;;;26.90;7.53;;;29.70;31.80;;;;;;5018454;28;20217;-88
2021/06/20 12:59:49;;;;;;;23.63;7.57;;;29.90;33.00;;;;;;5028187;28;20664;-89
2021/06/20 13:02:25;;;;;;;27.63;7.13;;;29.80;31.20;;;;;;5026625;28;20236;-89
2021/06/20 13:04:53;;;;;;;20.40;6.72;;;29.90;30.60;;;;;;5027650;28;20260;-91
2021/06/20 13:07:37;;;;;;;28.10;7.68;;;30.00;30.30;;;;;;5026822;28;20221;-87
2021/06/20 13:10:08;;;;;;;25.90;6.85;;;30.20;30.00;;;;;;5033181;28;20237;-89
2021/06/20 13:12:35;;;;;;;22.17;6.82;;;30.30;29.90;;;;;;5025864;28;20260;-89
2021/06/20 13:15:02;;;;;;;26.08;6.60;;;30.10;31.50;;;;;;5032249;28;20208;-89
2021/06/20 13:17:39;;;;;;;20.33;5.85;;;29.90;30.30;;;;;;5026114;28;20222;-91
2021/06/20 13:20:08;;;;;;;25.50;7.18;;;29.70;30.60;;;;;;5028009;28;20221;-91
2021/06/20 13:22:35;;;;;;;23.70;6.90;;;29.50;31.60;;;;;;5022998;28;20230;-93
2021/06/20 13:25:12;;;;;;;25.08;6.85;;;29.50;32.50;;;;;;5034497;28;20198;-92
2021/06/20 13:30:22;;;;;;;27.42;6.93;;;29.50;32.30;;;;;;5027147;28;20547;-92
2021/06/20 13:35:31;;;;;;;21.10;6.20;;;29.40;33.30;;;;;;5027210;28;20207;-92
2021/06/20 13:37:59;;;;;;;22.70;6.60;;;29.30;32.30;;;;;;5031207;28;20225;-91
2021/06/20 13:40:27;;;;;;;26.10;7.22;;;29.30;33.00;;;;;;5022854;28;20233;-91
2021/06/20 13:42:54;;;;;;;24.25;7.00;;;29.20;33.20;;;;;;5025370;28;20229;-91
2021/06/20 13:45:23;;;;;;;23.15;6.75;;;29.10;33.00;;;;;;5023582;28;20243;-91
2021/06/20 13:47:53;;;;;;;24.23;7.00;;;29.00;33.20;;;;;;5019996;28;20240;-91
2021/06/20 13:50:20;;;;;;;22.13;6.43;;;28.90;34.10;;;;;;5026028;28;20688;-90
2021/06/20 13:52:47;;;;;;;19.50;6.20;;;29.00;32.50;;;;;;5021145;28;20276;-91
2021/06/20 13:55:16;;;;;;;22.23;6.75;;;29.00;32.20;;;;;;5022344;28;20658;-91
2021/06/20 13:57:44;;;;;;;24.63;8.75;;;29.00;31.80;;;;;;5028053;28;20242;-91
2021/06/20 14:00:13;;;;;;;23.83;7.22;;;28.90;32.90;;;;;;5020377;28;20273;-91
2021/06/20 14:02:40;;;;;;;19.23;6.78;;;28.80;33.90;;;;;;5026807;28;20222;-91
2021/06/20 14:08:10;;;;;;;24.02;7.15;;;28.90;33.80;;;;;;5029920;28;20230;-91
2021/06/20 14:10:39;;;;;;;27.00;6.65;;;29.10;33.00;;;;;;5041391;28;20577;-90